sensor_id;sensor_type;location;lat;lon;timestamp;pressure;altitude;pressure_sealevel;temperature;humidity
5522;BME280;2783;48.730;8.006;2024-01-30T00:02:11;101523.03;;;2.70;100.00
5522;BME280;2783;48.730;8.006;2024-01-30T00:04:36;101517.72;;;2.67;100.00
5522;BME280;2783;48.730;8.006;2024-01-30T00:07:01;101515.06;;;2.66;100.00
5522;BME280;2783;48.730;8.006;2024-01-30T00:09:27;101520.31;;;2.66;100.00
5522;BME280;2783;48.730;8.006;2024-01-30T00:11:52;101520.25;;;2.63;100.00
5522;BME280;2783;48.730;8.006;2024-01-30T00:14:18;101517.47;;;2.57;100.00
5522;BME280;2783;48.730;8.006;2024-01-30T00:16:44;101514.03;;;2.59;100.00
5522;BME280;2783;48.730;8.006;2024-01-30T00:19:09;101520.00;;;2.54;100.00
5522;BME280;2783;48.730;8.006;2024-01-30T00:21:34;101490.47;;;2.25;100.00
5522;BME280;2783;48.730;8.006;2024-01-30T00:24:00;101517.97;;;2.42;100.00
5522;BME280;2783;48.730;8.006;2024-01-30T00:26:25;101478.09;;;2.21;100.00
5522;BME280;2783;48.730;8.006;2024-01-30T00:28:51;101515.47;;;2.45;100.00
5522;BME280;2783;48.730;8.006;2024-01-30T00:31:16;101469.28;;;2.19;100.00
5522;BME280;2783;48.730;8.006;2024-01-30T00:33:42;101513.66;;;2.44;100.00
5522;BME280;2783;48.730;8.006;2024-01-30T00:36:08;101507.38;;;2.38;100.00
5522;BME280;2783;48.730;8.006;2024-01-30T00:38:34;101526.81;;;2.46;100.00
5522;BME280;2783;48.730;8.006;2024-01-30T00:41:00;101466.63;;;2.18;100.00
5522;BME280;2783;48.730;8.006;2024-01-30T00:43:27;101524.22;;;2.47;100.00
5522;BME280;2783;48.730;8.006;2024-01-30T00:45:52;101517.06;;;2.40;100.00
5522;BME280;2783;48.730;8.006;2024-01-30T00:48:18;101520.63;;;2.44;100.00
5522;BME280;2783;48.730;8.006;2024-01-30T00:50:43;101521.50;;;2.43;100.00
5522;BME280;2783;48.730;8.006;2024-01-30T00:53:08;101521.50;;;2.43;100.00
5522;BME280;2783;48.730;8.006;2024-01-30T00:55:35;101525.03;;;2.43;100.00
5522;BME280;2783;48.730;8.006;2024-01-30T00:58:01;101529.28;;;2.38;100.00
5522;BME280;2783;48.730;8.006;2024-01-30T01:00:26;101524.75;;;2.33;100.00
5522;BME280;2783;48.730;8.006;2024-01-30T01:02:55;101530.84;;;2.30;100.00
5522;BME280;2783;48.730;8.006;2024-01-30T01:05:21;101530.84;;;2.30;100.00
5522;BME280;2783;48.730;8.006;2024-01-30T01:07:46;101532.56;;;2.30;100.00
5522;BME280;2783;48.730;8.006;2024-01-30T01:10:13;101529.00;;;2.28;100.00
5522;BME280;2783;48.730;8.006;2024-01-30T01:12:39;101528.91;;;2.23;100.00
5522;BME280;2783;48.730;8.006;2024-01-30T01:15:05;101526.16;;;2.19;100.00
5522;BME280;2783;48.730;8.006;2024-01-30T01:17:31;101532.28;;;2.19;100.00
5522;BME280;2783;48.730;8.006;2024-01-30T01:19:57;101532.22;;;2.16;100.00
5522;BME280;2783;48.730;8.006;2024-01-30T01:22:22;101533.03;;;2.14;100.00
5522;BME280;2783;48.730;8.006;2024-01-30T01:24:48;101530.19;;;2.06;100.00
5522;BME280;2783;48.730;8.006;2024-01-30T01:27:13;101522.97;;;1.98;100.00
5522;BME280;2783;48.730;8.006;2024-01-30T01:29:39;101528.19;;;1.96;100.00
5522;BME280;2783;48.730;8.006;2024-01-30T01:32:04;101527.16;;;1.91;100.00
5522;BME280;2783;48.730;8.006;2024-01-30T01:34:30;101522.75;;;1.89;100.00
5522;BME280;2783;48.730;8.006;2024-01-30T01:36:56;101524.56;;;1.91;100.00
5522;BME280;2783;48.730;8.006;2024-01-30T01:39:22;101525.47;;;1.93;100.00
5522;BME280;2783;48.730;8.006;2024-01-30T01:41:49;101533.69;;;2.05;100.00
5522;BME280;2783;48.730;8.006;2024-01-30T01:44:14;101496.56;;;1.90;100.00
5522;BME280;2783;48.730;8.006;2024-01-30T01:46:39;101524.66;;;2.28;100.00
5522;BME280;2783;48.730;8.006;2024-01-30T01:49:05;101510.91;;;2.38;100.00
5522;BME280;2783;48.730;8.006;2024-01-30T01:51:34;101516.97;;;2.37;100.00
5522;BME280;2783;48.730;8.006;2024-01-30T01:54:03;101517.84;;;2.36;100.00
5522;BME280;2783;48.730;8.006;2024-01-30T01:56:30;101514.28;;;2.34;100.00
5522;BME280;2783;48.730;8.006;2024-01-30T01:59:00;101510.63;;;2.28;100.00
5522;BME280;2783;48.730;8.006;2024-01-30T02:01:27;101515.66;;;2.19;100.00
5522;BME280;2783;48.730;8.006;2024-01-30T02:03:52;101521.56;;;2.10;100.00
5522;BME280;2783;48.730;8.006;2024-01-30T02:06:18;101510.91;;;2.04;100.00
5522;BME280;2783;48.730;8.006;2024-01-30T02:08:44;101513.50;;;2.04;100.00
5522;BME280;2783;48.730;8.006;2024-01-30T02:11:10;101516.00;;;1.98;100.00
5522;BME280;2783;48.730;8.006;2024-01-30T02:13:36;101526.41;;;1.95;100.00
5522;BME280;2783;48.730;8.006;2024-01-30T02:16:02;101514.06;;;1.91;100.00
5522;BME280;2783;48.730;8.006;2024-01-30T02:18:27;101509.63;;;1.89;100.00
5522;BME280;2783;48.730;8.006;2024-01-30T02:20:54;101496.34;;;1.81;100.00
5522;BME280;2783;48.730;8.006;2024-01-30T02:23:23;101515.75;;;1.88;100.00
5522;BME280;2783;48.730;8.006;2024-01-30T02:25:50;101509.56;;;1.86;100.00
5522;BME280;2783;48.730;8.006;2024-01-30T02:28:18;101504.13;;;1.80;100.00
5522;BME280;2783;48.730;8.006;2024-01-30T02:30:44;101515.66;;;1.86;100.00
5522;BME280;2783;48.730;8.006;2024-01-30T02:33:10;101489.75;;;1.64;100.00
5522;BME280;2783;48.730;8.006;2024-01-30T02:35:35;101522.31;;;1.72;100.00
5522;BME280;2783;48.730;8.006;2024-01-30T02:38:01;101523.91;;;1.67;100.00
5522;BME280;2783;48.730;8.006;2024-01-30T02:40:26;101525.00;;;1.75;100.00
5522;BME280;2783;48.730;8.006;2024-01-30T02:42:52;101529.56;;;1.82;100.00
5522;BME280;2783;48.730;8.006;2024-01-30T02:45:17;101526.16;;;1.86;100.00
5522;BME280;2783;48.730;8.006;2024-01-30T02:47:43;101537.56;;;1.87;100.00
5522;BME280;2783;48.730;8.006;2024-01-30T02:50:08;101482.63;;;1.60;100.00
5522;BME280;2783;48.730;8.006;2024-01-30T02:52:34;101526.94;;;1.82;100.00
5522;BME280;2783;48.730;8.006;2024-01-30T02:55:00;101484.34;;;1.58;100.00
5522;BME280;2783;48.730;8.006;2024-01-30T02:57:26;101512.91;;;1.80;100.00
5522;BME280;2783;48.730;8.006;2024-01-30T02:59:51;101516.38;;;1.79;100.00
5522;BME280;2783;48.730;8.006;2024-01-30T03:02:17;101517.22;;;1.78;100.00
5522;BME280;2783;48.730;8.006;2024-01-30T03:04:42;101506.63;;;1.75;100.00
5522;BME280;2783;48.730;8.006;2024-01-30T03:07:08;101511.88;;;1.75;100.00
5522;BME280;2783;48.730;8.006;2024-01-30T03:09:34;101516.31;;;1.76;100.00
5522;BME280;2783;48.730;8.006;2024-01-30T03:11:59;101511.81;;;1.72;100.00
5522;BME280;2783;48.730;8.006;2024-01-30T03:14:24;101517.88;;;1.70;100.00
5522;BME280;2783;48.730;8.006;2024-01-30T03:16:50;101525.69;;;1.68;100.00
5522;BME280;2783;48.730;8.006;2024-01-30T03:19:15;101515.03;;;1.62;100.00
5522;BME280;2783;48.730;8.006;2024-01-30T03:21:41;101476.75;;;1.36;100.00
5522;BME280;2783;48.730;8.006;2024-01-30T03:24:06;101514.88;;;1.56;100.00
5522;BME280;2783;48.730;8.006;2024-01-30T03:26:31;101479.34;;;1.36;100.00
5522;BME280;2783;48.730;8.006;2024-01-30T03:28:57;101510.81;;;1.67;100.00
5522;BME280;2783;48.730;8.006;2024-01-30T03:31:22;101516.22;;;1.75;100.00
5522;BME280;2783;48.730;8.006;2024-01-30T03:33:48;101512.91;;;1.80;100.00
5522;BME280;2783;48.730;8.006;2024-01-30T03:36:15;101514.63;;;1.80;100.00
5522;BME280;2783;48.730;8.006;2024-01-30T03:38:40;101486.66;;;1.48;100.00
5522;BME280;2783;48.730;8.006;2024-01-30T03:41:10;101525.59;;;1.65;100.00
5522;BME280;2783;48.730;8.006;2024-01-30T03:43:36;101518.50;;;1.61;100.00
5522;BME280;2783;48.730;8.006;2024-01-30T03:46:02;101518.50;;;1.61;100.00
5522;BME280;2783;48.730;8.006;2024-01-30T03:48:28;101482.72;;;1.32;100.00
5522;BME280;2783;48.730;8.006;2024-01-30T03:50:54;101529.78;;;1.59;100.00
5522;BME280;2783;48.730;8.006;2024-01-30T03:53:19;101527.13;;;1.57;100.00
5522;BME280;2783;48.730;8.006;2024-01-30T03:55:45;101534.16;;;1.58;100.00
5522;BME280;2783;48.730;8.006;2024-01-30T03:58:10;101534.00;;;1.54;100.00
5522;BME280;2783;48.730;8.006;2024-01-30T04:00:36;101530.41;;;1.50;100.00
5522;BME280;2783;48.730;8.006;2024-01-30T04:03:02;101523.34;;;1.46;100.00
5522;BME280;2783;48.730;8.006;2024-01-30T04:05:27;101531.78;;;1.36;100.00
5522;BME280;2783;48.730;8.006;2024-01-30T04:07:52;101530.09;;;1.38;100.00
5522;BME280;2783;48.730;8.006;2024-01-30T04:10:18;101528.25;;;1.35;100.00
5522;BME280;2783;48.730;8.006;2024-01-30T04:12:43;101516.09;;;1.38;100.00
5522;BME280;2783;48.730;8.006;2024-01-30T04:15:09;101521.38;;;1.39;100.00
5522;BME280;2783;48.730;8.006;2024-01-30T04:17:34;101521.44;;;1.42;100.00
5522;BME280;2783;48.730;8.006;2024-01-30T04:20:00;101519.94;;;1.50;100.00
5522;BME280;2783;48.730;8.006;2024-01-30T04:22:25;101517.41;;;1.53;100.00
5522;BME280;2783;48.730;8.006;2024-01-30T04:24:50;101510.31;;;1.49;100.00
5522;BME280;2783;48.730;8.006;2024-01-30T04:27:16;101527.13;;;1.57;100.00
5522;BME280;2783;48.730;8.006;2024-01-30T04:29:41;101519.19;;;1.54;100.00
5522;BME280;2783;48.730;8.006;2024-01-30T04:32:07;101528.81;;;1.55;100.00
5522;BME280;2783;48.730;8.006;2024-01-30T04:34:32;101520.91;;;1.54;100.00
5522;BME280;2783;48.730;8.006;2024-01-30T04:36:58;101519.16;;;1.53;100.00
5522;BME280;2783;48.730;8.006;2024-01-30T04:39:23;101527.91;;;1.53;100.00
5522;BME280;2783;48.730;8.006;2024-01-30T04:41:48;101521.81;;;1.54;100.00
5522;BME280;2783;48.730;8.006;2024-01-30T04:44:14;101491.44;;;1.31;100.00
5522;BME280;2783;48.730;8.006;2024-01-30T04:46:39;101480.06;;;1.30;100.00
5522;BME280;2783;48.730;8.006;2024-01-30T04:49:05;101514.69;;;1.50;100.00
5522;BME280;2783;48.730;8.006;2024-01-30T04:51:33;101530.56;;;1.55;100.00
5522;BME280;2783;48.730;8.006;2024-01-30T04:53:58;101482.72;;;1.32;100.00
5522;BME280;2783;48.730;8.006;2024-01-30T04:56:24;101443.59;;;1.07;100.00
5522;BME280;2783;48.730;8.006;2024-01-30T04:58:49;101523.44;;;1.51;100.00
5522;BME280;2783;48.730;8.006;2024-01-30T05:01:16;101520.91;;;1.54;100.00
5522;BME280;2783;48.730;8.006;2024-01-30T05:03:41;101513.09;;;1.55;100.00
5522;BME280;2783;48.730;8.006;2024-01-30T05:06:07;101523.56;;;1.55;100.00
5522;BME280;2783;48.730;8.006;2024-01-30T05:08:32;101512.06;;;1.50;100.00
5522;BME280;2783;48.730;8.006;2024-01-30T05:11:00;101522.59;;;1.52;100.00
5522;BME280;2783;48.730;8.006;2024-01-30T05:13:26;101522.50;;;1.49;100.00
5522;BME280;2783;48.730;8.006;2024-01-30T05:15:52;101486.94;;;1.27;100.00
5522;BME280;2783;48.730;8.006;2024-01-30T05:18:17;101520.88;;;1.52;100.00
5522;BME280;2783;48.730;8.006;2024-01-30T05:20:43;101519.31;;;1.59;100.00
5522;BME280;2783;48.730;8.006;2024-01-30T05:23:08;101525.09;;;1.47;100.00
5522;BME280;2783;48.730;8.006;2024-01-30T05:25:33;101526.94;;;1.50;100.00
5522;BME280;2783;48.730;8.006;2024-01-30T05:27:59;101528.63;;;1.48;100.00
5522;BME280;2783;48.730;8.006;2024-01-30T05:30:24;101522.44;;;1.46;100.00
5522;BME280;2783;48.730;8.006;2024-01-30T05:32:50;101500.91;;;1.26;100.00
5522;BME280;2783;48.730;8.006;2024-01-30T05:35:15;101544.22;;;1.43;100.00
5522;BME280;2783;48.730;8.006;2024-01-30T05:37:41;101537.19;;;1.42;100.00
5522;BME280;2783;48.730;8.006;2024-01-30T05:40:07;101539.81;;;1.42;100.00
5522;BME280;2783;48.730;8.006;2024-01-30T05:42:33;101547.63;;;1.41;100.00
5522;BME280;2783;48.730;8.006;2024-01-30T05:44:58;101551.97;;;1.40;100.00
5522;BME280;2783;48.730;8.006;2024-01-30T05:47:23;101537.69;;;1.29;100.00
5522;BME280;2783;48.730;8.006;2024-01-30T05:49:49;101544.03;;;1.37;100.00
5522;BME280;2783;48.730;8.006;2024-01-30T05:52:14;101543.16;;;1.37;100.00
5522;BME280;2783;48.730;8.006;2024-01-30T05:54:40;101543.13;;;1.35;100.00
5522;BME280;2783;48.730;8.006;2024-01-30T05:57:06;101537.06;;;1.38;100.00
5522;BME280;2783;48.730;8.006;2024-01-30T05:59:31;101544.09;;;1.40;100.00
5522;BME280;2783;48.730;8.006;2024-01-30T06:01:57;101529.28;;;1.41;100.00
5522;BME280;2783;48.730;8.006;2024-01-30T06:04:23;101534.47;;;1.39;100.00
5522;BME280;2783;48.730;8.006;2024-01-30T06:06:48;101525.72;;;1.38;100.00
5522;BME280;2783;48.730;8.006;2024-01-30T06:09:14;101534.53;;;1.41;100.00
5522;BME280;2783;48.730;8.006;2024-01-30T06:11:39;101481.47;;;1.18;100.00
5522;BME280;2783;48.730;8.006;2024-01-30T06:14:05;101528.56;;;1.46;100.00
5522;BME280;2783;48.730;8.006;2024-01-30T06:16:30;101533.00;;;1.49;100.00
5522;BME280;2783;48.730;8.006;2024-01-30T06:18:56;101453.22;;;1.08;100.00
5522;BME280;2783;48.730;8.006;2024-01-30T06:21:22;101528.84;;;1.57;100.00
5522;BME280;2783;48.730;8.006;2024-01-30T06:23:47;101537.63;;;1.57;100.00
5522;BME280;2783;48.730;8.006;2024-01-30T06:26:12;101536.63;;;1.54;100.00
5522;BME280;2783;48.730;8.006;2024-01-30T06:28:38;101495.59;;;1.23;100.00
5522;BME280;2783;48.730;8.006;2024-01-30T06:31:03;101545.31;;;1.51;100.00
5522;BME280;2783;48.730;8.006;2024-01-30T06:33:29;101549.53;;;1.46;100.00
5522;BME280;2783;48.730;8.006;2024-01-30T06:35:55;101545.03;;;1.42;100.00
5522;BME280;2783;48.730;8.006;2024-01-30T06:38:20;101551.16;;;1.41;100.00
5522;BME280;2783;48.730;8.006;2024-01-30T06:40:45;101545.91;;;1.41;100.00
5522;BME280;2783;48.730;8.006;2024-01-30T06:43:11;101547.63;;;1.41;100.00
5522;BME280;2783;48.730;8.006;2024-01-30T06:45:36;101545.81;;;1.38;100.00
5522;BME280;2783;48.730;8.006;2024-01-30T06:48:02;101544.94;;;1.38;100.00
5522;BME280;2783;48.730;8.006;2024-01-30T06:50:28;101474.63;;;0.93;100.00
5522;BME280;2783;48.730;8.006;2024-01-30T06:52:53;101540.69;;;1.43;100.00
5522;BME280;2783;48.730;8.006;2024-01-30T06:55:19;101543.16;;;1.37;100.00
5522;BME280;2783;48.730;8.006;2024-01-30T06:57:44;101538.75;;;1.35;100.00
5522;BME280;2783;48.730;8.006;2024-01-30T07:00:10;101548.47;;;1.40;100.00
5522;BME280;2783;48.730;8.006;2024-01-30T07:02:36;101541.66;;;1.45;100.00
5522;BME280;2783;48.730;8.006;2024-01-30T07:05:02;101549.53;;;1.46;100.00
5522;BME280;2783;48.730;8.006;2024-01-30T07:07:27;101547.66;;;1.42;100.00
5522;BME280;2783;48.730;8.006;2024-01-30T07:09:54;101549.53;;;1.46;100.00
5522;BME280;2783;48.730;8.006;2024-01-30T07:12:22;101546.16;;;1.50;100.00
5522;BME280;2783;48.730;8.006;2024-01-30T07:14:49;101503.59;;;1.29;100.00
5522;BME280;2783;48.730;8.006;2024-01-30T07:17:15;101548.06;;;1.56;100.00
5522;BME280;2783;48.730;8.006;2024-01-30T07:19:41;101499.44;;;1.35;100.00
5522;BME280;2783;48.730;8.006;2024-01-30T07:22:06;101544.78;;;1.63;100.00
5522;BME280;2783;48.730;8.006;2024-01-30T07:24:31;101547.50;;;1.67;100.00
5522;BME280;2783;48.730;8.006;2024-01-30T07:26:57;101559.91;;;1.73;100.00
5522;BME280;2783;48.730;8.006;2024-01-30T07:29:22;101547.03;;;1.82;100.00
5522;BME280;2783;48.730;8.006;2024-01-30T07:31:48;101554.19;;;1.87;100.00
5522;BME280;2783;48.730;8.006;2024-01-30T07:34:13;101550.97;;;1.97;100.00
5522;BME280;2783;48.730;8.006;2024-01-30T07:36:39;101552.88;;;2.04;100.00
5522;BME280;2783;48.730;8.006;2024-01-30T07:39:04;101551.38;;;2.12;100.00
5522;BME280;2783;48.730;8.006;2024-01-30T07:41:29;101516.00;;;1.98;100.00
5522;BME280;2783;48.730;8.006;2024-01-30T07:43:55;101562.47;;;2.36;100.00
5522;BME280;2783;48.730;8.006;2024-01-30T07:46:20;101561.91;;;2.49;100.00
5522;BME280;2783;48.730;8.006;2024-01-30T07:48:46;101555.28;;;2.63;100.00
5522;BME280;2783;48.730;8.006;2024-01-30T07:51:11;101551.16;;;2.75;100.00
5522;BME280;2783;48.730;8.006;2024-01-30T07:53:36;101557.59;;;2.89;100.00
5522;BME280;2783;48.730;8.006;2024-01-30T07:56:02;101564.94;;;3.03;100.00
5522;BME280;2783;48.730;8.006;2024-01-30T07:58:27;101568.16;;;3.29;100.00
5522;BME280;2783;48.730;8.006;2024-01-30T08:00:53;101569.81;;;3.67;100.00
5522;BME280;2783;48.730;8.006;2024-01-30T08:03:19;101573.09;;;4.00;100.00
5522;BME280;2783;48.730;8.006;2024-01-30T08:05:44;101574.97;;;4.07;100.00
5522;BME280;2783;48.730;8.006;2024-01-30T08:08:10;101576.81;;;4.11;100.00
5522;BME280;2783;48.730;8.006;2024-01-30T08:10:35;101571.56;;;4.13;100.00
5522;BME280;2783;48.730;8.006;2024-01-30T08:13:01;101550.25;;;3.99;100.00
5522;BME280;2783;48.730;8.006;2024-01-30T08:15:27;101573.31;;;4.12;100.00
5522;BME280;2783;48.730;8.006;2024-01-30T08:17:52;101575.16;;;4.16;100.00
5522;BME280;2783;48.730;8.006;2024-01-30T08:20:23;101576.22;;;4.27;100.00
5522;BME280;2783;48.730;8.006;2024-01-30T08:22:49;101548.16;;;4.28;100.00
5522;BME280;2783;48.730;8.006;2024-01-30T08:25:14;101574.50;;;4.81;100.00
5522;BME280;2783;48.730;8.006;2024-01-30T08:27:39;101571.59;;;5.21;100.00
5522;BME280;2783;48.730;8.006;2024-01-30T08:30:06;101568.31;;;5.40;100.00
5522;BME280;2783;48.730;8.006;2024-01-30T08:32:32;101580.47;;;5.29;100.00
5522;BME280;2783;48.730;8.006;2024-01-30T08:34:58;101587.25;;;5.12;100.00
5522;BME280;2783;48.730;8.006;2024-01-30T08:37:23;101590.47;;;4.92;100.00
5522;BME280;2783;48.730;8.006;2024-01-30T08:39:49;101553.94;;;4.58;100.00
5522;BME280;2783;48.730;8.006;2024-01-30T08:42:14;101591.00;;;4.70;100.00
5522;BME280;2783;48.730;8.006;2024-01-30T08:44:40;101580.41;;;4.67;100.00
5522;BME280;2783;48.730;8.006;2024-01-30T08:47:05;101517.38;;;4.25;100.00
5522;BME280;2783;48.730;8.006;2024-01-30T08:49:31;101549.28;;;4.43;100.00
5522;BME280;2783;48.730;8.006;2024-01-30T08:51:56;101575.16;;;4.68;100.00
5522;BME280;2783;48.730;8.006;2024-01-30T08:54:23;101576.00;;;4.64;100.00
5522;BME280;2783;48.730;8.006;2024-01-30T08:56:49;101584.94;;;4.75;100.00
5522;BME280;2783;48.730;8.006;2024-01-30T08:59:14;101580.63;;;4.80;100.00
5522;BME280;2783;48.730;8.006;2024-01-30T09:01:40;101563.91;;;4.78;100.00
5522;BME280;2783;48.730;8.006;2024-01-30T09:04:05;101588.88;;;5.01;100.00
5522;BME280;2783;48.730;8.006;2024-01-30T09:06:31;101593.19;;;4.96;100.00
5522;BME280;2783;48.730;8.006;2024-01-30T09:08:56;101583.50;;;4.95;100.00
5522;BME280;2783;48.730;8.006;2024-01-30T09:11:23;101591.84;;;5.25;100.00
5522;BME280;2783;48.730;8.006;2024-01-30T09:13:48;101601.78;;;5.45;100.00
5522;BME280;2783;48.730;8.006;2024-01-30T09:16:14;101598.44;;;5.56;100.00
5522;BME280;2783;48.730;8.006;2024-01-30T09:18:41;101594.91;;;5.56;100.00
5522;BME280;2783;48.730;8.006;2024-01-30T09:21:07;101581.34;;;5.27;100.00
5522;BME280;2783;48.730;8.006;2024-01-30T09:23:32;101608.78;;;5.41;100.00
5522;BME280;2783;48.730;8.006;2024-01-30T09:25:58;101604.53;;;5.54;100.00
5522;BME280;2783;48.730;8.006;2024-01-30T09:28:24;101601.16;;;5.65;100.00
5522;BME280;2783;48.730;8.006;2024-01-30T09:30:49;101548.06;;;5.39;100.00
5522;BME280;2783;48.730;8.006;2024-01-30T09:33:15;101600.50;;;5.80;100.00
5522;BME280;2783;48.730;8.006;2024-01-30T09:35:40;101552.81;;;5.66;100.00
5522;BME280;2783;48.730;8.006;2024-01-30T09:38:06;101592.69;;;5.89;100.00
5522;BME280;2783;48.730;8.006;2024-01-30T09:40:31;101591.91;;;5.97;100.00
5522;BME280;2783;48.730;8.006;2024-01-30T09:42:58;101592.06;;;6.08;100.00
5522;BME280;2783;48.730;8.006;2024-01-30T09:45:26;101552.25;;;5.91;100.00
5522;BME280;2783;48.730;8.006;2024-01-30T09:47:52;101604.63;;;6.36;100.00
5522;BME280;2783;48.730;8.006;2024-01-30T09:50:18;101605.69;;;6.51;100.00
5522;BME280;2783;48.730;8.006;2024-01-30T09:52:45;101606.78;;;6.79;100.00
5522;BME280;2783;48.730;8.006;2024-01-30T09:55:10;101576.88;;;6.82;100.00
5522;BME280;2783;48.730;8.006;2024-01-30T09:57:36;101609.56;;;6.97;100.00
5522;BME280;2783;48.730;8.006;2024-01-30T10:00:05;101614.06;;;7.04;100.00
5522;BME280;2783;48.730;8.006;2024-01-30T10:02:34;101622.16;;;7.30;100.00
5522;BME280;2783;48.730;8.006;2024-01-30T10:05:00;101624.84;;;7.34;100.00
5522;BME280;2783;48.730;8.006;2024-01-30T10:07:26;101625.69;;;7.33;100.00
5522;BME280;2783;48.730;8.006;2024-01-30T10:09:53;101616.91;;;7.37;100.00
5522;BME280;2783;48.730;8.006;2024-01-30T10:12:18;101613.44;;;7.47;100.00
5522;BME280;2783;48.730;8.006;2024-01-30T10:14:44;101620.63;;;7.72;100.00
5522;BME280;2783;48.730;8.006;2024-01-30T10:17:10;101610.97;;;7.92;100.00
5522;BME280;2783;48.730;8.006;2024-01-30T10:19:37;101600.44;;;7.98;100.00
5522;BME280;2783;48.730;8.006;2024-01-30T10:22:03;101613.72;;;8.23;100.00
5522;BME280;2783;48.730;8.006;2024-01-30T10:24:29;101615.56;;;8.37;100.00
5522;BME280;2783;48.730;8.006;2024-01-30T10:26:55;101613.81;;;8.57;100.00
5522;BME280;2783;48.730;8.006;2024-01-30T10:29:21;101618.22;;;8.54;100.00
5522;BME280;2783;48.730;8.006;2024-01-30T10:31:59;101608.50;;;8.47;100.00
5522;BME280;2783;48.730;8.006;2024-01-30T10:34:25;101577.53;;;8.28;100.00
5522;BME280;2783;48.730;8.006;2024-01-30T10:39:29;101612.03;;;8.46;100.00
5522;BME280;2783;48.730;8.006;2024-01-30T10:41:59;101614.72;;;8.55;100.00
5522;BME280;2783;48.730;8.006;2024-01-30T10:44:30;101618.25;;;8.66;100.00
5522;BME280;2783;48.730;8.006;2024-01-30T10:47:03;101612.94;;;8.72;100.00
5522;BME280;2783;48.730;8.006;2024-01-30T10:49:31;101608.53;;;8.87;100.00
5522;BME280;2783;48.730;8.006;2024-01-30T10:51:57;101610.25;;;9.20;100.00
5522;BME280;2783;48.730;8.006;2024-01-30T10:54:24;101602.28;;;9.35;100.00
5522;BME280;2783;48.730;8.006;2024-01-30T10:56:50;101592.50;;;9.43;98.66
5522;BME280;2783;48.730;8.006;2024-01-30T10:59:16;101596.00;;;9.60;99.03
5522;BME280;2783;48.730;8.006;2024-01-30T11:01:42;101586.13;;;9.89;97.87
5522;BME280;2783;48.730;8.006;2024-01-30T11:04:08;101586.06;;;9.98;96.69
5522;BME280;2783;48.730;8.006;2024-01-30T11:06:41;101555.03;;;10.09;96.21
5522;BME280;2783;48.730;8.006;2024-01-30T11:09:10;101577.84;;;10.43;94.97
5522;BME280;2783;48.730;8.006;2024-01-30T11:11:51;101570.56;;;10.68;94.27
5522;BME280;2783;48.730;8.006;2024-01-30T11:14:23;101585.47;;;10.86;92.29
5522;BME280;2783;48.730;8.006;2024-01-30T11:16:49;101585.31;;;11.07;91.99
5522;BME280;2783;48.730;8.006;2024-01-30T11:19:14;101578.88;;;11.27;92.04
5522;BME280;2783;48.730;8.006;2024-01-30T11:21:42;101576.53;;;11.79;89.64
5522;BME280;2783;48.730;8.006;2024-01-30T11:24:08;101554.34;;;12.38;87.45
5522;BME280;2783;48.730;8.006;2024-01-30T11:26:34;101572.81;;;13.06;83.42
5522;BME280;2783;48.730;8.006;2024-01-30T11:29:03;101575.91;;;13.31;78.34
5522;BME280;2783;48.730;8.006;2024-01-30T11:31:29;101552.28;;;13.06;76.69
5522;BME280;2783;48.730;8.006;2024-01-30T11:33:56;101583.94;;;13.29;75.80
5522;BME280;2783;48.730;8.006;2024-01-30T11:36:25;101580.03;;;13.47;75.78
5522;BME280;2783;48.730;8.006;2024-01-30T11:38:51;101575.69;;;13.41;74.85
5522;BME280;2783;48.730;8.006;2024-01-30T11:41:17;101574.88;;;13.38;74.01
5522;BME280;2783;48.730;8.006;2024-01-30T11:43:43;101580.84;;;13.04;72.24
5522;BME280;2783;48.730;8.006;2024-01-30T11:46:09;101581.06;;;12.89;73.69
5522;BME280;2783;48.730;8.006;2024-01-30T11:48:35;101551.41;;;12.54;74.47
5522;BME280;2783;48.730;8.006;2024-01-30T11:51:00;101583.06;;;12.75;74.87
5522;BME280;2783;48.730;8.006;2024-01-30T11:53:27;101570.00;;;12.59;74.73
5522;BME280;2783;48.730;8.006;2024-01-30T11:55:52;101568.22;;;13.12;74.64
5522;BME280;2783;48.730;8.006;2024-01-30T11:58:18;101557.13;;;13.34;71.63
5522;BME280;2783;48.730;8.006;2024-01-30T12:00:53;101549.06;;;13.37;70.65
5522;BME280;2783;48.730;8.006;2024-01-30T12:03:18;101553.66;;;13.29;71.69
5522;BME280;2783;48.730;8.006;2024-01-30T12:05:43;101539.94;;;13.01;71.85
5522;BME280;2783;48.730;8.006;2024-01-30T12:08:15;101543.00;;;12.77;73.99
5522;BME280;2783;48.730;8.006;2024-01-30T12:10:41;101546.63;;;12.74;74.64
5522;BME280;2783;48.730;8.006;2024-01-30T12:13:06;101530.31;;;12.91;75.26
5522;BME280;2783;48.730;8.006;2024-01-30T12:15:32;101539.94;;;13.01;74.84
5522;BME280;2783;48.730;8.006;2024-01-30T12:18:05;101552.13;;;13.15;75.09
5522;BME280;2783;48.730;8.006;2024-01-30T12:20:31;101549.72;;;13.48;75.65
5522;BME280;2783;48.730;8.006;2024-01-30T12:22:56;101549.91;;;13.39;74.62
5522;BME280;2783;48.730;8.006;2024-01-30T12:25:21;101544.25;;;13.54;75.35
5522;BME280;2783;48.730;8.006;2024-01-30T12:27:49;101544.38;;;13.49;74.22
5522;BME280;2783;48.730;8.006;2024-01-30T12:30:15;101535.63;;;13.40;74.21
5522;BME280;2783;48.730;8.006;2024-01-30T12:32:42;101538.25;;;13.41;74.95
5522;BME280;2783;48.730;8.006;2024-01-30T12:35:12;101544.63;;;13.36;74.20
5522;BME280;2783;48.730;8.006;2024-01-30T12:37:39;101539.34;;;13.33;74.97
5522;BME280;2783;48.730;8.006;2024-01-30T12:40:05;101513.69;;;13.24;76.32
5522;BME280;2783;48.730;8.006;2024-01-30T12:42:31;101528.38;;;13.45;75.54
5522;BME280;2783;48.730;8.006;2024-01-30T12:44:57;101517.91;;;13.36;73.46
5522;BME280;2783;48.730;8.006;2024-01-30T12:47:24;101496.03;;;13.15;72.70
5522;BME280;2783;48.730;8.006;2024-01-30T12:49:49;101522.97;;;13.48;73.40
5522;BME280;2783;48.730;8.006;2024-01-30T12:52:19;101522.34;;;13.35;72.12
5522;BME280;2783;48.730;8.006;2024-01-30T12:54:44;101524.84;;;13.43;71.99
5522;BME280;2783;48.730;8.006;2024-01-30T12:57:10;101493.00;;;13.34;72.23
5522;BME280;2783;48.730;8.006;2024-01-30T12:59:35;101524.63;;;13.55;73.62
5522;BME280;2783;48.730;8.006;2024-01-30T13:02:01;101529.00;;;13.59;74.32
5522;BME280;2783;48.730;8.006;2024-01-30T13:04:28;101469.19;;;13.21;73.62
5522;BME280;2783;48.730;8.006;2024-01-30T13:06:54;101516.66;;;13.52;73.92